createdAt,value
2022-10-18T00:01:00.875Z,17.30
2022-10-18T00:03:28.736Z,18.17
2022-10-18T00:05:56.407Z,17.42
2022-10-18T00:08:24.100Z,16.50
2022-10-18T00:10:51.664Z,17.38
2022-10-18T00:13:20.065Z,17.42
2022-10-18T00:15:57.358Z,19.30
2022-10-18T00:21:10.491Z,17.80
2022-10-18T00:23:38.028Z,19.08
2022-10-18T00:26:20.136Z,18.55
2022-10-18T00:28:51.865Z,17.90
2022-10-18T00:31:39.705Z,18.63
2022-10-18T00:34:14.881Z,18.30
2022-10-18T00:36:43.911Z,17.73
2022-10-18T00:39:19.721Z,17.77
2022-10-18T00:41:48.560Z,17.27
2022-10-18T00:44:15.974Z,18.95
2022-10-18T00:46:46.665Z,19.25
2022-10-18T00:49:27.345Z,17.90
2022-10-18T00:52:07.714Z,18.65
2022-10-18T00:54:39.100Z,17.35
2022-10-18T00:57:07.397Z,18.73
2022-10-18T00:59:36.112Z,20.38
2022-10-18T01:02:05.055Z,18.13
2022-10-18T01:04:32.604Z,19.65
2022-10-18T01:07:27.381Z,18.83
2022-10-18T01:10:14.069Z,19.70
2022-10-18T01:12:56.068Z,18.45
2022-10-18T01:15:26.374Z,18.63
2022-10-18T01:18:21.031Z,19.08
2022-10-18T01:21:00.714Z,18.52
2022-10-18T01:24:09.262Z,18.33
2022-10-18T01:26:44.918Z,19.88
2022-10-18T01:29:24.606Z,19.88
2022-10-18T01:31:59.659Z,18.67
2022-10-18T01:34:31.596Z,18.20
2022-10-18T01:37:00.642Z,18.02
2022-10-18T01:39:31.894Z,16.80
2022-10-18T01:42:03.026Z,18.35
2022-10-18T01:44:32.955Z,18.38
2022-10-18T01:47:01.303Z,19.02
2022-10-18T01:49:28.784Z,18.70
2022-10-18T01:51:56.359Z,18.55
2022-10-18T01:54:33.024Z,17.63
2022-10-18T01:57:03.367Z,18.52
2022-10-18T01:59:46.177Z,17.88
2022-10-18T02:02:35.183Z,18.95
2022-10-18T02:05:11.643Z,18.45
2022-10-18T02:08:05.626Z,18.42
2022-10-18T02:10:48.652Z,18.25
2022-10-18T02:13:20.666Z,18.85
2022-10-18T02:15:52.456Z,17.92
2022-10-18T02:18:28.722Z,17.10
2022-10-18T02:20:57.391Z,19.17
2022-10-18T02:23:26.652Z,17.75
2022-10-18T02:25:54.639Z,19.52
2022-10-18T02:28:22.636Z,18.48
2022-10-18T02:30:58.445Z,18.65
2022-10-18T02:33:34.296Z,19.67
2022-10-18T02:36:10.812Z,19.83
2022-10-18T02:38:41.728Z,18.98
2022-10-18T02:41:09.167Z,19.95
2022-10-18T02:43:36.746Z,20.38
2022-10-18T02:46:04.267Z,20.52
2022-10-18T02:48:31.796Z,20.25
2022-10-18T02:50:59.250Z,20.23
2022-10-18T02:53:26.714Z,20.95
2022-10-18T02:55:54.262Z,20.83
2022-10-18T02:58:21.750Z,19.65
2022-10-18T03:00:52.158Z,19.98
2022-10-18T03:03:20.740Z,19.63
2022-10-18T03:05:52.600Z,19.88
2022-10-18T03:08:20.440Z,19.02
2022-10-18T03:10:47.928Z,19.00
2022-10-18T03:13:16.008Z,19.67
2022-10-18T03:15:43.671Z,20.00
2022-10-18T03:18:11.125Z,19.30
2022-10-18T03:20:38.767Z,20.98
2022-10-18T03:23:07.248Z,20.40
2022-10-18T03:25:34.759Z,19.05
2022-10-18T03:28:02.315Z,19.17
2022-10-18T03:30:29.887Z,19.05
2022-10-18T03:32:57.526Z,19.67
2022-10-18T03:35:25.066Z,19.25
2022-10-18T03:37:52.589Z,20.65
2022-10-18T03:40:20.739Z,20.90
2022-10-18T03:42:48.271Z,19.92
2022-10-18T03:45:15.826Z,20.35
2022-10-18T03:47:43.312Z,20.40
2022-10-18T03:50:11.006Z,21.27
2022-10-18T03:52:38.525Z,20.38
2022-10-18T03:55:06.817Z,20.52
2022-10-18T03:57:34.336Z,21.98
2022-10-18T04:00:02.260Z,21.77
2022-10-18T04:02:40.584Z,20.50
2022-10-18T04:05:09.009Z,22.65
2022-10-18T04:10:10.581Z,22.55
2022-10-18T04:12:38.300Z,21.45
2022-10-18T04:15:06.413Z,21.00
2022-10-18T04:17:34.525Z,19.98
2022-10-18T04:20:02.388Z,19.02
2022-10-18T04:22:30.258Z,19.80
2022-10-18T04:24:57.878Z,19.75
2022-10-18T04:27:25.449Z,19.23
2022-10-18T04:29:53.209Z,17.90
2022-10-18T04:32:20.633Z,19.20
2022-10-18T04:34:48.140Z,19.83
2022-10-18T04:37:15.660Z,19.00
2022-10-18T04:39:51.161Z,19.60
2022-10-18T04:42:22.028Z,18.80
2022-10-18T04:44:49.675Z,18.95
2022-10-18T04:47:18.495Z,21.80
2022-10-18T04:49:46.319Z,20.20
2022-10-18T04:52:14.974Z,20.25
2022-10-18T04:54:42.462Z,19.17
2022-10-18T04:57:10.046Z,18.60
2022-10-18T04:59:37.566Z,19.60
2022-10-18T05:02:05.119Z,19.85
2022-10-18T05:04:32.632Z,19.30
2022-10-18T05:07:00.163Z,19.55
2022-10-18T05:09:27.802Z,19.92
2022-10-18T05:11:55.302Z,19.75
2022-10-18T05:14:22.812Z,20.45
2022-10-18T05:16:50.323Z,20.15
2022-10-18T05:19:17.887Z,20.17
2022-10-18T05:21:47.551Z,20.70
2022-10-18T05:24:15.111Z,21.00
2022-10-18T05:26:42.641Z,21.52
2022-10-18T05:29:10.380Z,22.60
2022-10-18T05:31:37.890Z,22.60
2022-10-18T05:34:05.447Z,23.08
2022-10-18T05:36:33.017Z,22.30
2022-10-18T05:39:04.925Z,22.17
2022-10-18T05:41:32.924Z,22.35
2022-10-18T05:44:04.734Z,22.70
2022-10-18T05:46:33.127Z,22.75
2022-10-18T05:49:01.071Z,21.60
2022-10-18T05:51:28.607Z,18.35
2022-10-18T05:53:56.139Z,18.35
2022-10-18T05:56:23.615Z,19.42
2022-10-18T05:58:52.194Z,18.13
2022-10-18T06:01:20.175Z,17.02
2022-10-18T06:03:47.871Z,19.98
2022-10-18T06:06:15.678Z,21.25
2022-10-18T06:08:44.375Z,21.52
2022-10-18T06:11:14.877Z,21.02
2022-10-18T06:13:43.788Z,21.15
2022-10-18T06:16:13.143Z,22.08
2022-10-18T06:18:51.710Z,21.67
2022-10-18T06:23:51.506Z,20.95
2022-10-18T06:26:19.365Z,20.98
2022-10-18T06:28:46.836Z,19.35
2022-10-18T06:31:16.325Z,20.40
2022-10-18T06:33:45.827Z,20.10
2022-10-18T06:36:16.184Z,18.23
2022-10-18T06:38:44.275Z,18.63
2022-10-18T06:41:12.101Z,16.88
2022-10-18T06:43:39.819Z,16.52
2022-10-18T06:46:08.330Z,16.15
2022-10-18T06:48:37.039Z,15.10
2022-10-18T06:51:07.438Z,14.20
2022-10-18T06:53:44.040Z,13.98
2022-10-18T06:56:20.832Z,12.57
2022-10-18T06:58:48.318Z,12.80
2022-10-18T07:01:18.357Z,12.18
2022-10-18T07:03:47.622Z,24.65
2022-10-18T07:06:17.788Z,31.33
2022-10-18T07:08:46.755Z,12.45
2022-10-18T07:11:20.835Z,13.02
2022-10-18T07:13:48.306Z,9.30
2022-10-18T07:16:18.654Z,8.88
2022-10-18T07:18:49.861Z,8.95
2022-10-18T07:21:20.190Z,6.95
2022-10-18T07:23:47.941Z,6.85
2022-10-18T07:26:22.880Z,7.40
2022-10-18T07:28:55.194Z,7.88
2022-10-18T07:31:23.637Z,7.10
2022-10-18T07:33:52.124Z,6.50
2022-10-18T07:36:21.349Z,6.75
2022-10-18T07:38:49.609Z,6.82
2022-10-18T07:41:17.479Z,6.40
2022-10-18T07:43:47.632Z,7.10
2022-10-18T07:48:59.560Z,6.90
2022-10-18T07:51:28.118Z,6.97
2022-10-18T07:53:55.676Z,7.10
2022-10-18T07:56:23.191Z,7.55
2022-10-18T07:58:52.764Z,7.75
2022-10-18T08:01:22.672Z,8.18
2022-10-18T08:03:53.584Z,8.95
2022-10-18T08:06:22.898Z,8.90
2022-10-18T08:08:50.584Z,8.48
2022-10-18T08:11:21.118Z,9.40
2022-10-18T08:13:48.785Z,9.38
2022-10-18T08:16:19.331Z,9.77
2022-10-18T08:18:47.028Z,11.63
2022-10-18T08:21:16.642Z,9.38
2022-10-18T08:23:45.109Z,9.50
2022-10-18T08:26:18.421Z,9.30
2022-10-18T08:28:53.826Z,8.27
2022-10-18T08:31:31.361Z,8.88
2022-10-18T08:33:58.919Z,8.73
2022-10-18T08:36:26.391Z,8.27
2022-10-18T08:38:53.947Z,9.25
2022-10-18T08:41:42.476Z,9.50
2022-10-18T08:44:24.027Z,10.85
2022-10-18T08:46:58.701Z,9.32
2022-10-18T08:49:46.255Z,10.15
2022-10-18T08:52:52.766Z,8.77
2022-10-18T08:55:41.063Z,8.40
2022-10-18T08:58:22.144Z,7.30
2022-10-18T09:01:01.663Z,8.70
2022-10-18T09:03:29.222Z,7.70
2022-10-18T09:06:11.962Z,7.60
2022-10-18T09:09:00.919Z,7.35
2022-10-18T09:11:44.615Z,6.93
2022-10-18T09:14:32.242Z,7.30
2022-10-18T09:17:37.356Z,7.45
2022-10-18T09:20:17.747Z,7.22
2022-10-18T09:22:54.252Z,7.45
2022-10-18T09:25:26.515Z,7.50
2022-10-18T09:28:01.068Z,7.95
2022-10-18T09:30:43.677Z,7.28
2022-10-18T09:33:26.698Z,7.93
2022-10-18T09:36:01.373Z,7.75
2022-10-18T09:38:32.781Z,7.20
2022-10-18T09:41:20.704Z,7.75
2022-10-18T09:43:54.744Z,8.20
2022-10-18T09:46:26.798Z,9.27
2022-10-18T09:49:05.938Z,9.55
2022-10-18T09:51:42.661Z,6.95
2022-10-18T09:54:31.045Z,6.40
2022-10-18T09:57:06.668Z,6.50
2022-10-18T09:59:36.352Z,6.55
2022-10-18T10:02:05.258Z,5.65
2022-10-18T10:04:33.213Z,6.07
2022-10-18T10:07:02.333Z,5.93
2022-10-18T10:09:58.105Z,5.43
2022-10-18T10:12:35.802Z,6.20
2022-10-18T10:15:27.006Z,5.72
2022-10-18T10:20:31.898Z,5.95
2022-10-18T10:25:42.664Z,5.72
2022-10-18T10:28:16.579Z,5.45
2022-10-18T10:30:44.557Z,5.45
2022-10-18T10:33:36.427Z,6.25
2022-10-18T10:36:15.798Z,5.85
2022-10-18T10:38:43.283Z,5.47
2022-10-18T10:41:23.862Z,5.38
2022-10-18T10:43:51.600Z,6.30
2022-10-18T10:46:20.572Z,6.55
2022-10-18T10:48:56.277Z,6.47
2022-10-18T10:51:34.110Z,6.28
2022-10-18T10:54:15.935Z,5.32
2022-10-18T10:56:58.618Z,6.15
2022-10-18T10:59:29.010Z,5.60
2022-10-18T11:02:21.752Z,5.78
2022-10-18T11:04:55.058Z,6.00
2022-10-18T11:07:41.940Z,5.43
2022-10-18T11:10:09.336Z,6.00
2022-10-18T11:12:44.741Z,6.40
2022-10-18T11:15:24.888Z,5.95
2022-10-18T11:18:10.812Z,6.25
2022-10-18T11:21:19.013Z,6.10
2022-10-18T11:23:46.697Z,5.55
2022-10-18T11:26:55.304Z,6.25
2022-10-18T11:29:52.061Z,5.57
2022-10-18T11:32:45.840Z,5.75
2022-10-18T11:35:51.860Z,5.47
2022-10-18T11:38:45.529Z,5.95
2022-10-18T11:41:15.728Z,5.78
2022-10-18T11:44:19.272Z,5.57
2022-10-18T11:47:11.676Z,5.90
2022-10-18T11:49:54.319Z,5.50
2022-10-18T11:52:39.696Z,4.95
2022-10-18T11:55:33.000Z,4.38
2022-10-18T12:00:55.193Z,5.40
2022-10-18T12:03:41.874Z,5.40
2022-10-18T12:06:16.762Z,6.50
2022-10-18T12:08:51.563Z,5.68
2022-10-18T12:11:24.562Z,6.15
2022-10-18T12:13:57.771Z,6.40
2022-10-18T12:16:49.858Z,6.15
2022-10-18T12:19:27.445Z,6.05
2022-10-18T12:22:16.585Z,5.55
2022-10-18T12:24:44.146Z,5.57
2022-10-18T12:27:14.347Z,5.15
2022-10-18T12:29:53.333Z,5.93
2022-10-18T12:32:27.629Z,5.55
2022-10-18T12:35:05.804Z,5.70
2022-10-18T12:37:42.310Z,5.57
2022-10-18T12:40:36.100Z,5.15
2022-10-18T12:43:09.908Z,5.90
2022-10-18T12:45:50.819Z,5.82
2022-10-18T12:48:35.585Z,5.57
2022-10-18T12:51:16.891Z,5.47
2022-10-18T12:53:46.587Z,5.15
2022-10-18T12:56:29.590Z,5.60
2022-10-18T12:59:15.381Z,5.25
2022-10-18T13:01:52.111Z,5.45
2022-10-18T13:04:28.754Z,4.82
2022-10-18T13:07:05.305Z,5.15
2022-10-18T13:09:38.613Z,5.15
2022-10-18T13:12:09.098Z,5.43
2022-10-18T13:15:20.828Z,4.70
2022-10-18T13:18:21.740Z,4.90
2022-10-18T13:21:27.862Z,5.40
2022-10-18T13:24:13.866Z,5.10
2022-10-18T13:26:59.098Z,5.32
2022-10-18T13:30:00.119Z,4.90
2022-10-18T13:32:37.349Z,4.80
2022-10-18T13:35:42.772Z,4.85
2022-10-18T13:38:36.864Z,4.93
2022-10-18T13:41:11.281Z,4.65
2022-10-18T13:43:55.120Z,6.03
2022-10-18T13:46:24.843Z,4.68
2022-10-18T13:49:00.739Z,4.40
2022-10-18T13:51:56.724Z,5.63
2022-10-18T13:54:52.037Z,4.53
2022-10-18T13:57:41.100Z,4.85
2022-10-18T14:00:33.535Z,4.10
2022-10-18T14:03:31.984Z,4.10
2022-10-18T14:06:07.069Z,5.13
2022-10-18T14:08:49.727Z,4.75
2022-10-18T14:11:35.509Z,4.45
2022-10-18T14:14:15.055Z,4.43
2022-10-18T14:16:51.486Z,4.40
2022-10-18T14:19:28.886Z,4.32
2022-10-18T14:22:28.575Z,5.32
2022-10-18T14:24:58.034Z,4.88
2022-10-18T14:27:32.536Z,4.82
2022-10-18T14:30:16.635Z,4.15
2022-10-18T14:32:47.624Z,4.57
2022-10-18T14:35:32.942Z,4.80
2022-10-18T14:38:02.549Z,4.72
2022-10-18T14:40:37.889Z,7.10
2022-10-18T14:43:14.075Z,9.85
2022-10-18T14:45:42.557Z,4.90
2022-10-18T14:48:23.538Z,4.82
2022-10-18T14:50:59.426Z,4.32
2022-10-18T14:53:37.522Z,5.20
2022-10-18T14:56:07.497Z,4.50
2022-10-18T14:58:37.988Z,6.18
2022-10-18T15:01:06.048Z,4.75
2022-10-18T15:03:35.824Z,4.78
2022-10-18T15:06:05.827Z,5.70
2022-10-18T15:08:40.492Z,5.20
2022-10-18T15:11:11.888Z,4.80
2022-10-18T15:13:57.466Z,5.35
2022-10-18T15:16:30.779Z,4.97
2022-10-18T15:19:06.266Z,5.10
2022-10-18T15:21:36.924Z,5.18
2022-10-18T15:24:36.422Z,5.78
2022-10-18T15:27:19.087Z,5.70
2022-10-18T15:29:46.857Z,5.45
2022-10-18T15:32:35.579Z,4.60
2022-10-18T15:35:32.238Z,5.10
2022-10-18T15:38:21.032Z,5.75
2022-10-18T15:40:48.651Z,4.97
2022-10-18T15:43:28.288Z,5.22
2022-10-18T15:46:05.357Z,5.93
2022-10-18T15:48:39.806Z,5.80
2022-10-18T15:51:19.329Z,5.88
2022-10-18T15:53:55.671Z,5.72
2022-10-18T15:56:42.342Z,5.65
2022-10-18T15:59:27.761Z,6.68
2022-10-18T16:01:55.881Z,5.70
2022-10-18T16:04:33.099Z,8.30
2022-10-18T16:07:00.745Z,9.75
2022-10-18T16:09:29.114Z,8.45
2022-10-18T16:11:58.556Z,10.27
2022-10-18T16:14:26.428Z,13.05
2022-10-18T16:16:56.147Z,11.32
2022-10-18T16:19:24.041Z,8.90
2022-10-18T16:21:56.473Z,7.18
2022-10-18T16:24:24.419Z,13.13
2022-10-18T16:26:52.033Z,28.70
2022-10-18T16:29:24.507Z,14.93
2022-10-18T16:31:55.262Z,9.98
2022-10-18T16:34:22.819Z,8.77
2022-10-18T16:36:50.261Z,7.70
2022-10-18T16:39:19.969Z,8.15
2022-10-18T16:41:48.108Z,9.00
2022-10-18T16:44:16.752Z,13.05
2022-10-18T16:46:44.246Z,10.00
2022-10-18T16:51:54.492Z,8.27
2022-10-18T16:54:22.875Z,8.57
2022-10-18T16:56:50.572Z,9.63
2022-10-18T16:59:29.092Z,9.73
2022-10-18T17:01:56.704Z,11.50
2022-10-18T17:04:24.284Z,10.50
2022-10-18T17:06:54.330Z,9.57
2022-10-18T17:09:21.897Z,8.65
2022-10-18T17:11:49.694Z,8.98
2022-10-18T17:14:17.222Z,10.23
2022-10-18T17:16:54.863Z,8.93
2022-10-18T17:19:24.299Z,10.02
2022-10-18T17:21:51.886Z,8.52
2022-10-18T17:24:19.315Z,8.75
2022-10-18T17:26:46.803Z,9.93
2022-10-18T17:29:14.315Z,9.90
2022-10-18T17:31:42.090Z,10.05
2022-10-18T17:34:09.586Z,9.68
2022-10-18T17:36:37.334Z,9.55
2022-10-18T17:39:07.546Z,9.13
2022-10-18T17:41:35.063Z,8.63
2022-10-18T17:44:04.303Z,10.15
2022-10-18T17:46:32.004Z,9.55
2022-10-18T17:48:59.562Z,10.18
2022-10-18T17:51:27.150Z,10.70
2022-10-18T17:53:54.708Z,10.77
2022-10-18T17:56:22.285Z,10.23
2022-10-18T17:58:53.131Z,9.82
2022-10-18T18:01:23.273Z,10.60
2022-10-18T18:03:56.722Z,9.90
2022-10-18T18:06:34.147Z,10.10
2022-10-18T18:09:08.365Z,10.73
2022-10-18T18:11:38.422Z,10.57
2022-10-18T18:14:09.064Z,10.93
2022-10-18T18:16:38.934Z,11.25
2022-10-18T18:19:09.651Z,11.85
2022-10-18T18:21:41.543Z,11.35
2022-10-18T18:24:10.169Z,17.48
2022-10-18T18:26:40.019Z,15.65
2022-10-18T18:29:07.561Z,12.68
2022-10-18T18:31:40.045Z,10.50
2022-10-18T18:34:10.404Z,10.63
2022-10-18T18:36:38.767Z,11.40
2022-10-18T18:39:07.339Z,11.25
2022-10-18T18:41:35.372Z,11.05
2022-10-18T18:44:05.310Z,11.65
2022-10-18T18:46:38.234Z,11.27
2022-10-18T18:49:07.061Z,14.55
2022-10-18T18:51:38.032Z,13.35
2022-10-18T18:54:07.109Z,12.98
2022-10-18T18:56:34.755Z,11.95
2022-10-18T18:59:02.966Z,11.27
2022-10-18T19:01:32.874Z,11.02
2022-10-18T19:04:00.708Z,10.82
2022-10-18T19:06:39.794Z,11.68
2022-10-18T19:09:25.525Z,10.25
2022-10-18T19:11:55.398Z,11.75
2022-10-18T19:14:25.039Z,11.50
2022-10-18T19:16:55.147Z,11.40
2022-10-18T19:19:24.814Z,11.73
2022-10-18T19:21:54.853Z,12.20
2022-10-18T19:24:24.022Z,11.70
2022-10-18T19:26:53.885Z,12.63
2022-10-18T19:29:24.092Z,12.30
2022-10-18T19:31:56.664Z,13.23
2022-10-18T19:34:26.505Z,11.93
2022-10-18T19:36:54.207Z,11.30
2022-10-18T19:39:26.697Z,10.60
2022-10-18T19:41:56.127Z,11.98
2022-10-18T19:44:25.679Z,11.63
2022-10-18T19:46:53.591Z,12.20
2022-10-18T19:49:22.349Z,11.95
2022-10-18T19:51:49.997Z,11.52
2022-10-18T19:54:17.767Z,11.77
2022-10-18T19:56:45.355Z,12.30
2022-10-18T19:59:15.569Z,12.07
2022-10-18T20:01:44.144Z,12.85
2022-10-18T20:04:12.907Z,13.32
2022-10-18T20:06:41.361Z,12.85
2022-10-18T20:09:13.484Z,12.82
2022-10-18T20:11:43.859Z,12.88
2022-10-18T20:14:11.361Z,12.63
2022-10-18T20:16:38.831Z,12.45
2022-10-18T20:19:09.737Z,11.82
2022-10-18T20:21:37.462Z,11.65
2022-10-18T20:24:06.196Z,11.60
2022-10-18T20:26:35.790Z,11.82
2022-10-18T20:29:04.180Z,12.82
2022-10-18T20:31:35.578Z,11.27
2022-10-18T20:34:06.313Z,12.23
2022-10-18T20:36:34.762Z,12.43
2022-10-18T20:39:03.558Z,12.40
2022-10-18T20:41:34.048Z,12.50
2022-10-18T20:44:04.312Z,13.07
2022-10-18T20:46:34.128Z,12.60
2022-10-18T20:49:02.110Z,13.48
2022-10-18T20:51:29.803Z,13.07
2022-10-18T20:53:57.406Z,13.05
2022-10-18T20:56:28.904Z,12.90
2022-10-18T20:58:57.806Z,12.63
2022-10-18T21:01:28.129Z,12.85
2022-10-18T21:04:09.953Z,13.82
2022-10-18T21:06:40.980Z,12.98
2022-10-18T21:09:11.827Z,13.07
2022-10-18T21:11:44.678Z,12.68
2022-10-18T21:14:17.617Z,12.90
2022-10-18T21:16:48.645Z,13.27
2022-10-18T21:19:19.931Z,12.43
2022-10-18T21:21:50.480Z,12.57
2022-10-18T21:24:19.905Z,13.07
2022-10-18T21:26:51.165Z,12.85
2022-10-18T21:29:22.325Z,13.18
2022-10-18T21:31:54.323Z,13.95
2022-10-18T21:34:22.248Z,12.88
2022-10-18T21:36:49.738Z,13.88
2022-10-18T21:39:19.802Z,14.30
2022-10-18T21:41:47.603Z,14.73
2022-10-18T21:44:16.252Z,14.38
2022-10-18T21:46:44.413Z,15.20
2022-10-18T21:49:13.599Z,13.57
2022-10-18T21:51:41.598Z,13.50
2022-10-18T21:54:13.117Z,13.93
2022-10-18T21:56:41.370Z,14.07
2022-10-18T21:59:12.134Z,14.75
2022-10-18T22:01:40.218Z,13.70
2022-10-18T22:04:20.990Z,13.27
2022-10-18T22:06:48.991Z,13.27
2022-10-18T22:09:16.532Z,13.98
2022-10-18T22:11:49.167Z,12.80
2022-10-18T22:14:16.630Z,14.60
2022-10-18T22:16:44.185Z,13.25
2022-10-18T22:19:12.499Z,13.55
2022-10-18T22:21:41.143Z,13.85
2022-10-18T22:24:09.945Z,14.00
2022-10-18T22:26:40.214Z,12.73
2022-10-18T22:29:15.581Z,12.55
2022-10-18T22:31:46.246Z,12.57
2022-10-18T22:34:16.779Z,13.02
2022-10-18T22:36:45.820Z,12.60
2022-10-18T22:39:14.531Z,11.95
2022-10-18T22:41:42.868Z,12.27
2022-10-18T22:44:14.470Z,12.50
2022-10-18T22:46:42.811Z,12.15
2022-10-18T22:49:11.256Z,12.07
2022-10-18T22:51:38.783Z,11.50
2022-10-18T22:54:06.283Z,10.68
2022-10-18T22:56:33.791Z,11.88
2022-10-18T22:59:01.452Z,11.52
2022-10-18T23:01:29.019Z,10.75
2022-10-18T23:03:58.827Z,11.43
2022-10-18T23:06:34.189Z,12.18
2022-10-18T23:09:05.494Z,11.50
2022-10-18T23:11:34.616Z,11.65
2022-10-18T23:14:03.753Z,11.80
2022-10-18T23:16:31.668Z,11.40
2022-10-18T23:18:59.374Z,11.75
2022-10-18T23:21:28.286Z,11.45
2022-10-18T23:23:56.783Z,10.65
2022-10-18T23:26:27.579Z,11.18
2022-10-18T23:28:55.624Z,10.73
2022-10-18T23:31:29.052Z,10.32
2022-10-18T23:33:58.841Z,10.90
2022-10-18T23:36:26.849Z,11.40
2022-10-18T23:38:55.287Z,12.20
2022-10-18T23:41:23.584Z,11.63
2022-10-18T23:43:51.558Z,11.77
2022-10-18T23:46:19.721Z,10.75
2022-10-18T23:48:47.868Z,11.50
2022-10-18T23:51:17.287Z,11.38
2022-10-18T23:53:45.021Z,11.43
2022-10-18T23:56:15.786Z,10.90
2022-10-18T23:58:44.983Z,10.77
